createdAt,value
2022-12-14T00:01:42.298Z,21.40
2022-12-14T00:04:15.161Z,21.20
2022-12-14T00:06:43.623Z,20.40
2022-12-14T00:09:10.133Z,21.40
2022-12-14T00:11:36.856Z,21.67
2022-12-14T00:14:06.497Z,20.42
2022-12-14T00:16:34.322Z,20.67
2022-12-14T00:19:02.210Z,22.38
2022-12-14T00:21:30.673Z,22.27
2022-12-14T00:24:00.110Z,21.65
2022-12-14T00:26:29.190Z,24.15
2022-12-14T00:28:58.371Z,23.00
2022-12-14T00:31:25.693Z,21.45
2022-12-14T00:33:52.722Z,22.92
2022-12-14T00:36:24.133Z,20.02
2022-12-14T00:38:50.649Z,23.90
2022-12-14T00:41:17.132Z,23.52
2022-12-14T00:43:49.867Z,25.13
2022-12-14T00:46:18.938Z,24.52
2022-12-14T00:48:45.767Z,23.55
2022-12-14T00:51:16.431Z,23.35
2022-12-14T00:53:44.738Z,24.00
2022-12-14T00:56:11.863Z,23.20
2022-12-14T00:58:48.680Z,24.80
2022-12-14T01:01:16.062Z,23.40
2022-12-14T01:03:43.130Z,23.90
2022-12-14T01:06:26.148Z,24.92
2022-12-14T01:08:54.349Z,23.75
2022-12-14T01:11:20.825Z,23.73
2022-12-14T01:13:51.962Z,25.42
2022-12-14T01:16:18.676Z,24.10
2022-12-14T01:18:47.126Z,24.60
2022-12-14T01:21:16.448Z,24.90
2022-12-14T01:23:44.477Z,24.90
2022-12-14T01:26:15.115Z,25.63
2022-12-14T01:28:42.275Z,25.65
2022-12-14T01:31:12.662Z,25.70
2022-12-14T01:33:39.489Z,23.60
2022-12-14T01:36:23.079Z,23.75
2022-12-14T01:38:56.880Z,24.95
2022-12-14T01:41:37.056Z,24.50
2022-12-14T01:44:10.075Z,24.42
2022-12-14T01:47:07.419Z,24.58
2022-12-14T01:49:49.832Z,24.30
2022-12-14T01:52:38.363Z,24.25
2022-12-14T01:55:13.123Z,23.98
2022-12-14T01:57:54.912Z,26.30
2022-12-14T02:00:23.727Z,25.15
2022-12-14T02:03:02.695Z,23.80
2022-12-14T02:05:32.031Z,25.20
2022-12-14T02:07:59.023Z,23.83
2022-12-14T02:10:31.765Z,25.92
2022-12-14T02:13:04.466Z,23.52
2022-12-14T02:15:32.429Z,24.20
2022-12-14T02:18:03.248Z,25.60
2022-12-14T02:20:41.241Z,25.10
2022-12-14T02:23:23.245Z,24.48
2022-12-14T02:26:18.273Z,25.67
2022-12-14T02:29:18.406Z,24.92
2022-12-14T02:31:58.579Z,25.60
2022-12-14T02:35:08.542Z,25.20
2022-12-14T02:37:45.473Z,25.05
2022-12-14T02:40:46.751Z,26.20
2022-12-14T02:43:27.787Z,25.63
2022-12-14T02:46:15.570Z,27.42
2022-12-14T02:48:54.752Z,26.60
2022-12-14T02:51:42.159Z,25.33
2022-12-14T02:54:20.424Z,24.77
2022-12-14T02:56:54.071Z,25.90
2022-12-14T02:59:24.347Z,26.73
2022-12-14T03:01:52.681Z,25.15
2022-12-14T03:04:19.573Z,25.33
2022-12-14T03:06:59.625Z,26.02
2022-12-14T03:09:28.573Z,26.55
2022-12-14T03:12:00.935Z,27.90
2022-12-14T03:14:42.291Z,26.70
2022-12-14T03:17:19.634Z,26.65
2022-12-14T03:19:52.044Z,25.33
2022-12-14T03:22:23.445Z,25.95
2022-12-14T03:24:55.815Z,26.42
2022-12-14T03:27:33.717Z,27.67
2022-12-14T03:30:05.954Z,25.50
2022-12-14T03:32:37.394Z,25.42
2022-12-14T03:35:11.929Z,27.02
2022-12-14T03:37:57.005Z,26.27
2022-12-14T03:40:32.866Z,25.27
2022-12-14T03:43:07.490Z,26.48
2022-12-14T03:45:57.871Z,26.33
2022-12-14T03:48:38.066Z,25.60
2022-12-14T03:51:22.410Z,24.52
2022-12-14T03:54:03.929Z,26.35
2022-12-14T03:56:52.979Z,27.05
2022-12-14T03:59:46.129Z,25.23
2022-12-14T04:02:40.954Z,24.85
2022-12-14T04:05:30.060Z,26.58
2022-12-14T04:08:11.599Z,25.80
2022-12-14T04:11:08.306Z,26.38
2022-12-14T04:14:11.695Z,25.60
2022-12-14T04:17:00.150Z,26.88
2022-12-14T04:19:44.381Z,27.70
2022-12-14T04:22:19.544Z,26.55
2022-12-14T04:25:14.252Z,27.63
2022-12-14T04:27:50.722Z,27.65
2022-12-14T04:30:18.065Z,25.60
2022-12-14T04:32:51.661Z,26.23
2022-12-14T04:35:30.722Z,27.08
2022-12-14T04:38:22.110Z,27.20
2022-12-14T04:40:55.652Z,26.75
2022-12-14T04:43:26.765Z,29.17
2022-12-14T04:46:02.335Z,26.40
2022-12-14T04:48:37.970Z,27.00
2022-12-14T04:53:55.914Z,26.85
2022-12-14T04:56:36.510Z,27.02
2022-12-14T04:59:03.405Z,27.38
2022-12-14T05:01:51.465Z,26.83
2022-12-14T05:04:36.529Z,27.95
2022-12-14T05:07:25.046Z,27.80
2022-12-14T05:10:09.653Z,27.75
2022-12-14T05:13:02.835Z,28.35
2022-12-14T05:15:39.282Z,29.83
2022-12-14T05:18:07.383Z,26.75
2022-12-14T05:20:33.881Z,27.50
2022-12-14T05:23:00.373Z,27.45
2022-12-14T05:25:28.631Z,27.73
2022-12-14T05:27:55.701Z,28.90
2022-12-14T05:30:22.363Z,27.38
2022-12-14T05:32:51.367Z,27.58
2022-12-14T05:35:18.026Z,28.52
2022-12-14T05:37:44.871Z,28.75
2022-12-14T05:40:13.836Z,27.30
2022-12-14T05:42:44.778Z,29.30
2022-12-14T05:45:13.969Z,28.27
2022-12-14T05:47:43.372Z,27.05
2022-12-14T05:50:10.060Z,28.83
2022-12-14T05:52:36.811Z,28.00
2022-12-14T05:55:05.300Z,28.45
2022-12-14T05:57:32.170Z,27.92
2022-12-14T05:59:58.730Z,27.38
2022-12-14T06:02:25.336Z,27.83
2022-12-14T06:04:52.132Z,28.30
2022-12-14T06:07:21.774Z,27.15
2022-12-14T06:09:57.026Z,28.52
2022-12-14T06:12:23.869Z,28.05
2022-12-14T06:14:50.541Z,28.30
2022-12-14T06:17:19.250Z,30.17
2022-12-14T06:19:49.878Z,27.23
2022-12-14T06:22:17.722Z,28.98
2022-12-14T06:24:46.397Z,28.30
2022-12-14T06:27:12.951Z,27.95
2022-12-14T06:29:39.449Z,26.58
2022-12-14T06:32:06.205Z,28.70
2022-12-14T06:34:36.915Z,28.75
2022-12-14T06:37:06.363Z,30.08
2022-12-14T06:39:33.093Z,29.52
2022-12-14T06:41:59.626Z,29.30
2022-12-14T06:44:26.330Z,29.55
2022-12-14T06:46:54.701Z,29.77
2022-12-14T06:49:22.136Z,29.83
2022-12-14T06:51:49.374Z,31.38
2022-12-14T06:54:21.355Z,30.60
2022-12-14T06:56:48.440Z,31.58
2022-12-14T06:59:16.397Z,31.02
2022-12-14T07:01:43.184Z,32.55
2022-12-14T07:04:10.004Z,31.55
2022-12-14T07:06:39.615Z,30.85
2022-12-14T07:09:13.180Z,31.80
2022-12-14T07:11:40.246Z,35.53
2022-12-14T07:14:07.364Z,33.85
2022-12-14T07:16:35.375Z,32.88
2022-12-14T07:19:01.983Z,33.05
2022-12-14T07:21:29.393Z,36.72
2022-12-14T07:23:57.652Z,36.60
2022-12-14T07:26:27.959Z,36.33
2022-12-14T07:28:55.158Z,38.22
2022-12-14T07:31:27.308Z,36.70
2022-12-14T07:33:58.482Z,40.05
2022-12-14T07:36:26.906Z,35.22
2022-12-14T07:38:55.932Z,39.60
2022-12-14T07:41:26.884Z,37.67
2022-12-14T07:43:55.422Z,36.22
2022-12-14T07:46:29.455Z,39.25
2022-12-14T07:48:57.608Z,36.95
2022-12-14T07:51:27.644Z,37.00
2022-12-14T07:53:56.541Z,35.15
2022-12-14T07:56:26.179Z,34.45
2022-12-14T07:58:56.131Z,35.83
2022-12-14T08:01:34.272Z,37.15
2022-12-14T08:04:06.841Z,35.25
2022-12-14T08:06:33.826Z,34.83
2022-12-14T08:09:03.414Z,37.90
2022-12-14T08:11:30.235Z,35.63
2022-12-14T08:14:01.932Z,36.47
2022-12-14T08:16:33.442Z,37.17
2022-12-14T08:19:01.387Z,35.13
2022-12-14T08:21:28.619Z,37.28
2022-12-14T08:24:05.708Z,34.45
2022-12-14T08:26:36.115Z,34.60
2022-12-14T08:29:04.226Z,34.50
2022-12-14T08:31:35.662Z,37.25
2022-12-14T08:34:02.827Z,35.92
2022-12-14T08:36:33.159Z,36.08
2022-12-14T08:39:07.425Z,35.90
2022-12-14T08:41:34.198Z,35.35
2022-12-14T08:44:02.337Z,34.88
2022-12-14T08:46:32.616Z,34.08
2022-12-14T08:48:59.248Z,35.90
2022-12-14T08:51:27.377Z,34.75
2022-12-14T08:54:00.948Z,32.25
2022-12-14T08:56:28.568Z,34.67
2022-12-14T08:58:55.966Z,35.30
2022-12-14T09:01:33.505Z,34.05
2022-12-14T09:04:07.872Z,32.53
2022-12-14T09:06:39.582Z,33.03
2022-12-14T09:09:13.637Z,33.70
2022-12-14T09:11:44.892Z,31.25
2022-12-14T09:14:11.740Z,31.38
2022-12-14T09:16:38.420Z,31.48
2022-12-14T09:19:05.227Z,31.33
2022-12-14T09:21:31.872Z,29.85
2022-12-14T09:23:59.800Z,30.85
2022-12-14T09:26:27.182Z,30.38
2022-12-14T09:28:56.349Z,31.20
2022-12-14T09:31:25.649Z,31.48
2022-12-14T09:33:52.794Z,30.70
2022-12-14T09:36:21.780Z,30.08
2022-12-14T09:38:55.347Z,30.52
2022-12-14T09:41:33.934Z,29.17
2022-12-14T09:47:17.651Z,30.98
2022-12-14T09:49:51.771Z,29.95
2022-12-14T09:52:25.564Z,29.73
2022-12-14T09:54:54.896Z,29.13
2022-12-14T09:57:30.605Z,28.98
2022-12-14T10:02:40.483Z,26.27
2022-12-14T10:05:30.412Z,25.55
2022-12-14T10:08:05.793Z,26.50
2022-12-14T10:11:16.290Z,27.33
2022-12-14T10:14:13.499Z,24.40
2022-12-14T10:17:03.854Z,28.58
2022-12-14T10:19:48.994Z,24.20
2022-12-14T10:22:20.277Z,25.67
2022-12-14T10:24:52.335Z,28.75
2022-12-14T10:27:26.455Z,28.27
2022-12-14T10:30:02.958Z,26.85
2022-12-14T10:32:38.685Z,29.38
2022-12-14T10:37:59.143Z,28.13
2022-12-14T10:40:34.408Z,30.25
2022-12-14T10:45:42.597Z,28.77
2022-12-14T10:48:37.397Z,28.45
2022-12-14T10:51:12.445Z,27.55
2022-12-14T10:53:51.692Z,25.77
2022-12-14T10:56:28.881Z,26.30
2022-12-14T10:59:26.587Z,27.13
2022-12-14T11:02:01.057Z,27.48
2022-12-14T11:04:36.104Z,27.90
2022-12-14T11:07:17.566Z,29.17
2022-12-14T11:09:44.786Z,30.38
2022-12-14T11:12:29.610Z,30.10
2022-12-14T11:15:04.449Z,29.23
2022-12-14T11:17:41.638Z,29.30
2022-12-14T11:20:23.007Z,27.48
2022-12-14T11:23:24.551Z,26.10
2022-12-14T11:25:55.688Z,24.65
2022-12-14T11:28:36.561Z,26.08
2022-12-14T11:31:28.549Z,27.55
2022-12-14T11:33:59.180Z,26.58
2022-12-14T11:36:31.834Z,28.95
2022-12-14T11:39:20.218Z,24.90
2022-12-14T11:41:59.492Z,26.45
2022-12-14T11:44:28.859Z,27.20
2022-12-14T11:47:05.173Z,28.73
2022-12-14T11:49:44.568Z,27.13
2022-12-14T11:52:12.855Z,27.48
2022-12-14T11:55:08.452Z,30.30
2022-12-14T11:57:40.550Z,30.27
2022-12-14T12:00:30.796Z,31.15
2022-12-14T12:03:02.562Z,26.95
2022-12-14T12:05:36.092Z,32.67
2022-12-14T12:08:02.874Z,31.27
2022-12-14T12:10:40.398Z,27.27
2022-12-14T12:13:16.450Z,30.85
2022-12-14T12:15:50.284Z,35.75
2022-12-14T12:18:55.382Z,33.28
2022-12-14T12:21:24.339Z,31.90
2022-12-14T12:24:00.747Z,32.58
2022-12-14T12:27:01.771Z,29.85
2022-12-14T12:29:41.510Z,26.05
2022-12-14T12:32:35.487Z,29.88
2022-12-14T12:35:32.100Z,30.20
2022-12-14T12:40:56.168Z,30.27
2022-12-14T12:43:32.123Z,32.08
2022-12-14T12:46:05.604Z,32.47
2022-12-14T12:48:39.984Z,28.48
2022-12-14T12:51:13.291Z,34.03
2022-12-14T12:53:47.329Z,32.03
2022-12-14T12:56:19.514Z,29.42
2022-12-14T12:58:53.176Z,28.75
2022-12-14T13:01:38.024Z,33.03
2022-12-14T13:04:16.326Z,31.67
2022-12-14T13:06:57.116Z,32.83
2022-12-14T13:09:38.146Z,34.72
2022-12-14T13:12:10.302Z,32.58
2022-12-14T13:14:49.972Z,37.72
2022-12-14T13:17:37.191Z,32.97
2022-12-14T13:20:15.536Z,36.97
2022-12-14T13:22:42.712Z,34.30
2022-12-14T13:25:40.168Z,30.20
2022-12-14T13:28:20.717Z,26.58
2022-12-14T13:31:08.629Z,23.42
2022-12-14T13:34:13.884Z,21.10
2022-12-14T13:36:49.530Z,23.60
2022-12-14T13:39:51.172Z,24.45
2022-12-14T13:42:57.090Z,29.92
2022-12-14T13:45:31.421Z,27.10
2022-12-14T13:48:03.001Z,33.75
2022-12-14T13:50:38.966Z,21.67
2022-12-14T13:53:18.794Z,21.63
2022-12-14T13:55:54.534Z,24.05
2022-12-14T14:01:07.673Z,23.35
2022-12-14T14:03:36.704Z,18.92
2022-12-14T14:06:14.391Z,19.55
2022-12-14T14:08:53.733Z,21.67
2022-12-14T14:11:40.170Z,18.95
2022-12-14T14:14:20.706Z,19.20
2022-12-14T14:16:58.236Z,17.88
2022-12-14T14:19:28.545Z,16.00
2022-12-14T14:22:26.424Z,21.25
2022-12-14T14:25:01.551Z,17.65
2022-12-14T14:27:37.397Z,15.17
2022-12-14T14:30:33.624Z,18.95
2022-12-14T14:33:35.797Z,22.85
2022-12-14T14:35:49.845Z,17.50
2022-12-14T14:38:33.895Z,27.75
2022-12-14T14:41:17.435Z,22.02
2022-12-14T14:43:55.415Z,27.08
2022-12-14T14:46:36.937Z,22.65
2022-12-14T14:49:06.021Z,27.92
2022-12-14T14:51:37.004Z,24.45
2022-12-14T14:55:06.443Z,37.97
2022-12-14T14:57:35.950Z,34.60
2022-12-14T15:00:08.324Z,23.65
2022-12-14T15:02:41.598Z,27.13
2022-12-14T15:08:25.454Z,24.30
2022-12-14T15:10:53.022Z,28.95
2022-12-14T15:13:31.071Z,25.52
2022-12-14T15:15:59.707Z,26.95
2022-12-14T15:18:30.525Z,21.15
2022-12-14T15:21:11.768Z,26.60
2022-12-14T15:23:53.495Z,22.10
2022-12-14T15:26:29.001Z,22.58
2022-12-14T15:28:58.981Z,24.33
2022-12-14T15:31:34.339Z,23.60
2022-12-14T15:34:02.755Z,27.45
2022-12-14T15:36:39.085Z,24.77
2022-12-14T15:39:05.847Z,35.78
2022-12-14T15:41:33.795Z,27.55
2022-12-14T15:44:03.328Z,28.05
2022-12-14T15:46:35.156Z,21.77
2022-12-14T15:49:12.485Z,23.52
2022-12-14T15:51:44.352Z,23.10
2022-12-14T15:54:25.411Z,28.88
2022-12-14T15:56:56.245Z,17.98
2022-12-14T15:59:33.137Z,17.58
2022-12-14T16:02:06.438Z,17.33
2022-12-14T16:04:33.772Z,17.67
2022-12-14T16:07:10.570Z,19.27
2022-12-14T16:09:41.876Z,17.83
2022-12-14T16:12:23.509Z,17.58
2022-12-14T16:14:59.233Z,16.52
2022-12-14T16:20:22.933Z,15.85
2022-12-14T16:23:20.844Z,16.45
2022-12-14T16:25:59.627Z,16.38
2022-12-14T16:28:31.503Z,14.18
2022-12-14T16:31:06.394Z,16.65
2022-12-14T16:33:37.331Z,15.87
2022-12-14T16:36:10.065Z,16.23
2022-12-14T16:38:54.007Z,17.42
2022-12-14T16:41:33.261Z,18.65
2022-12-14T16:44:08.039Z,19.17
2022-12-14T16:46:34.760Z,21.05
2022-12-14T16:49:23.406Z,21.73
2022-12-14T16:52:08.959Z,20.58
2022-12-14T16:54:48.648Z,23.42
2022-12-14T16:57:23.074Z,21.75
2022-12-14T16:59:59.035Z,35.92
2022-12-14T17:02:25.743Z,28.05
2022-12-14T17:04:52.719Z,23.35
2022-12-14T17:07:25.496Z,22.48
2022-12-14T17:09:51.963Z,22.92
2022-12-14T17:12:18.909Z,24.20
2022-12-14T17:14:49.997Z,22.98
2022-12-14T17:17:22.379Z,19.98
2022-12-14T17:19:50.780Z,21.75
2022-12-14T17:22:27.600Z,21.13
2022-12-14T17:24:54.425Z,22.63
2022-12-14T17:27:22.378Z,23.13
2022-12-14T17:29:51.453Z,22.52
2022-12-14T17:32:19.040Z,23.17
2022-12-14T17:34:47.844Z,22.73
2022-12-14T17:37:23.896Z,23.23
2022-12-14T17:39:51.411Z,27.55
2022-12-14T17:42:23.209Z,28.30
2022-12-14T17:44:56.505Z,38.08
2022-12-14T17:47:23.413Z,54.17
2022-12-14T17:49:49.970Z,41.10
2022-12-14T17:52:21.372Z,41.50
2022-12-14T17:54:47.922Z,31.92
2022-12-14T17:57:21.504Z,28.42
2022-12-14T17:59:50.605Z,29.20
2022-12-14T18:02:31.277Z,36.70
2022-12-14T18:04:58.163Z,35.88
2022-12-14T18:07:24.736Z,35.72
2022-12-14T18:09:53.341Z,33.75
2022-12-14T18:12:23.918Z,34.40
2022-12-14T18:14:51.058Z,29.95
2022-12-14T18:17:22.097Z,25.88
2022-12-14T18:19:52.088Z,23.00
2022-12-14T18:22:21.274Z,23.13
2022-12-14T18:24:49.286Z,19.88
2022-12-14T18:27:16.149Z,20.77
2022-12-14T18:29:42.607Z,18.48
2022-12-14T18:32:13.638Z,18.10
2022-12-14T18:34:42.392Z,16.00
2022-12-14T18:37:13.476Z,21.83
2022-12-14T18:39:40.367Z,25.42
2022-12-14T18:42:07.103Z,20.13
2022-12-14T18:44:33.597Z,24.15
2022-12-14T18:47:20.479Z,20.35
2022-12-14T18:49:55.062Z,18.55
2022-12-14T18:52:21.909Z,23.05
2022-12-14T18:54:55.400Z,18.35
2022-12-14T18:57:23.599Z,19.88
2022-12-14T18:59:50.240Z,15.52
2022-12-14T19:02:17.159Z,14.98
2022-12-14T19:04:54.071Z,12.98
2022-12-14T19:07:20.527Z,12.20
2022-12-14T19:09:47.011Z,14.02
2022-12-14T19:12:15.281Z,13.18
2022-12-14T19:14:41.773Z,12.35
2022-12-14T19:17:08.336Z,15.02
2022-12-14T19:19:42.678Z,16.55
2022-12-14T19:22:12.797Z,15.98
2022-12-14T19:24:39.828Z,17.85
2022-12-14T19:27:06.316Z,21.20
2022-12-14T19:29:33.012Z,13.88
2022-12-14T19:32:05.839Z,26.98
2022-12-14T19:34:32.790Z,25.58
2022-12-14T19:36:59.282Z,26.02
2022-12-14T19:39:27.539Z,28.10
2022-12-14T19:41:54.302Z,22.13
2022-12-14T19:44:20.830Z,38.78
2022-12-14T19:46:48.205Z,27.77
2022-12-14T19:49:16.656Z,29.23
2022-12-14T19:51:43.204Z,44.60
2022-12-14T19:54:15.836Z,31.98
2022-12-14T19:56:42.383Z,31.83
2022-12-14T19:59:13.455Z,38.90
2022-12-14T20:01:46.277Z,28.05
2022-12-14T20:04:15.853Z,34.83
2022-12-14T20:06:42.454Z,41.60
2022-12-14T20:09:09.032Z,33.55
2022-12-14T20:11:37.802Z,32.55
2022-12-14T20:14:04.428Z,28.50
2022-12-14T20:16:31.115Z,25.85
2022-12-14T20:18:58.088Z,24.75
2022-12-14T20:21:28.348Z,23.75
2022-12-14T20:23:58.146Z,21.83
2022-12-14T20:26:25.626Z,18.73
2022-12-14T20:29:01.605Z,19.67
2022-12-14T20:31:28.876Z,14.48
2022-12-14T20:33:55.698Z,19.70
2022-12-14T20:36:27.410Z,20.60
2022-12-14T20:38:56.050Z,17.13
2022-12-14T20:41:22.805Z,18.05
2022-12-14T20:43:49.561Z,14.50
2022-12-14T20:46:32.030Z,17.33
2022-12-14T20:49:03.304Z,13.32
2022-12-14T20:51:32.274Z,18.90
2022-12-14T20:53:59.476Z,16.10
2022-12-14T20:56:26.412Z,17.45
2022-12-14T20:58:52.978Z,16.85
2022-12-14T21:01:20.822Z,18.05
2022-12-14T21:03:50.481Z,13.57
2022-12-14T21:06:19.657Z,16.88
2022-12-14T21:09:01.556Z,15.95
2022-12-14T21:11:48.285Z,12.52
2022-12-14T21:14:15.496Z,12.98
2022-12-14T21:16:42.768Z,14.40
2022-12-14T21:19:12.272Z,13.48
2022-12-14T21:21:53.214Z,12.98
2022-12-14T21:24:37.620Z,18.23
2022-12-14T21:27:15.014Z,17.65
2022-12-14T21:29:41.493Z,17.63
2022-12-14T21:32:08.263Z,21.02
2022-12-14T21:34:41.402Z,20.05
2022-12-14T21:37:08.406Z,20.08
2022-12-14T21:39:35.176Z,18.40
2022-12-14T21:42:17.433Z,23.23
2022-12-14T21:44:46.594Z,20.75
2022-12-14T21:47:18.939Z,23.52
2022-12-14T21:49:49.753Z,19.77
2022-12-14T21:52:20.131Z,23.25
2022-12-14T21:54:48.893Z,21.48
2022-12-14T21:57:50.047Z,24.05
2022-12-14T22:00:19.810Z,22.85
2022-12-14T22:02:46.565Z,21.27
2022-12-14T22:05:13.333Z,20.67
2022-12-14T22:07:39.905Z,18.35
2022-12-14T22:10:18.691Z,19.33
2022-12-14T22:12:47.866Z,18.48
2022-12-14T22:15:14.816Z,18.73
2022-12-14T22:17:41.309Z,17.27
2022-12-14T22:20:08.543Z,17.70
2022-12-14T22:22:35.060Z,17.73
2022-12-14T22:25:03.489Z,16.83
2022-12-14T22:27:29.992Z,18.23
2022-12-14T22:29:56.562Z,17.83
2022-12-14T22:32:27.356Z,15.82
2022-12-14T22:34:55.537Z,16.42
2022-12-14T22:37:21.999Z,14.43
2022-12-14T22:39:50.193Z,17.08
2022-12-14T22:42:16.873Z,15.80
2022-12-14T22:44:43.449Z,14.75
2022-12-14T22:47:12.421Z,12.95
2022-12-14T22:49:39.177Z,11.63
2022-12-14T22:52:05.673Z,11.55
2022-12-14T22:54:32.850Z,12.18
2022-12-14T22:57:04.099Z,11.90
2022-12-14T22:59:41.991Z,10.85
2022-12-14T23:02:08.854Z,10.57
2022-12-14T23:04:37.322Z,10.23
2022-12-14T23:07:14.558Z,9.07
2022-12-14T23:09:59.788Z,9.52
2022-12-14T23:12:47.593Z,9.20
2022-12-14T23:15:32.961Z,9.55
2022-12-14T23:18:27.379Z,7.88
2022-12-14T23:21:12.842Z,8.50
2022-12-14T23:24:00.087Z,9.50
2022-12-14T23:26:45.469Z,8.52
2022-12-14T23:29:33.357Z,8.48
2022-12-14T23:32:18.500Z,9.18
2022-12-14T23:35:05.416Z,8.82
2022-12-14T23:37:50.273Z,9.40
2022-12-14T23:40:39.586Z,9.05
2022-12-14T23:43:33.430Z,11.43
2022-12-14T23:46:19.332Z,11.18
2022-12-14T23:49:04.608Z,11.25
2022-12-14T23:51:49.745Z,11.43
2022-12-14T23:54:35.445Z,11.63
2022-12-14T23:57:26.166Z,10.57
